createdAt,value
2022-10-28T00:00:54.239Z,15.73
2022-10-28T00:03:22.251Z,12.60
2022-10-28T00:05:50.242Z,13.20
2022-10-28T00:08:19.483Z,15.90
2022-10-28T00:10:47.440Z,29.93
2022-10-28T00:13:15.346Z,19.20
2022-10-28T00:15:43.250Z,19.47
2022-10-28T00:18:11.868Z,35.43
2022-10-28T00:20:39.766Z,20.93
2022-10-28T00:23:07.672Z,13.13
2022-10-28T00:25:36.945Z,11.83
2022-10-28T00:28:05.062Z,8.90
2022-10-28T00:30:32.987Z,9.80
2022-10-28T00:33:00.874Z,16.50
2022-10-28T00:35:28.740Z,44.70
2022-10-28T00:37:56.642Z,32.47
2022-10-28T00:40:24.551Z,18.63
2022-10-28T00:42:54.188Z,9.07
2022-10-28T00:45:22.445Z,12.10
2022-10-28T00:47:56.008Z,9.97
2022-10-28T00:50:36.877Z,13.07
2022-10-28T00:53:07.508Z,7.37
2022-10-28T00:55:36.853Z,8.80
2022-10-28T00:58:07.960Z,10.43
2022-10-28T01:00:36.226Z,9.17
2022-10-28T01:03:04.412Z,14.07
2022-10-28T01:05:36.403Z,17.63
2022-10-28T01:08:06.009Z,15.50
2022-10-28T01:10:52.536Z,22.10
2022-10-28T01:13:34.437Z,20.63
2022-10-28T01:16:08.368Z,19.80
2022-10-28T01:18:47.008Z,18.93
2022-10-28T01:21:52.246Z,14.40
2022-10-28T01:24:34.472Z,12.70
2022-10-28T01:27:48.613Z,16.20
2022-10-28T01:30:19.537Z,18.13
2022-10-28T01:33:00.274Z,27.43
2022-10-28T01:35:34.333Z,13.53
2022-10-28T01:38:18.811Z,11.70
2022-10-28T01:40:53.178Z,13.60
2022-10-28T01:43:27.478Z,11.93
2022-10-28T01:46:01.454Z,14.20
2022-10-28T01:51:09.673Z,20.90
2022-10-28T01:53:41.671Z,19.77
2022-10-28T01:56:13.200Z,20.83
2022-10-28T01:58:42.438Z,17.93
2022-10-28T02:01:11.975Z,13.17
2022-10-28T02:03:41.375Z,17.57
2022-10-28T02:06:18.180Z,12.53
2022-10-28T02:08:58.556Z,14.50
2022-10-28T02:11:39.651Z,12.53
2022-10-28T02:14:25.749Z,14.13
2022-10-28T02:17:01.293Z,15.17
2022-10-28T02:19:39.918Z,8.97
2022-10-28T02:22:16.718Z,11.40
2022-10-28T02:24:51.720Z,7.67
2022-10-28T02:27:28.284Z,10.70
2022-10-28T02:30:02.997Z,10.37
2022-10-28T02:32:38.443Z,11.73
2022-10-28T02:35:12.863Z,10.47
2022-10-28T02:37:42.922Z,10.63
2022-10-28T02:40:16.224Z,9.90
2022-10-28T02:42:49.767Z,9.50
2022-10-28T02:45:22.025Z,9.60
2022-10-28T02:47:58.588Z,19.83
2022-10-28T02:50:33.076Z,13.40
2022-10-28T02:53:03.355Z,10.83
2022-10-28T02:55:36.097Z,9.10
2022-10-28T02:58:04.214Z,8.00
2022-10-28T03:00:32.164Z,9.07
2022-10-28T03:03:00.208Z,10.40
2022-10-28T03:05:29.446Z,10.30
2022-10-28T03:07:57.368Z,11.30
2022-10-28T03:10:25.263Z,12.63
2022-10-28T03:12:53.226Z,16.00
2022-10-28T03:15:21.213Z,11.67
2022-10-28T03:17:49.209Z,12.87
2022-10-28T03:20:17.339Z,11.10
2022-10-28T03:22:46.575Z,11.87
2022-10-28T03:25:14.666Z,11.07
2022-10-28T03:27:42.536Z,10.23
2022-10-28T03:30:11.411Z,8.80
2022-10-28T03:32:42.561Z,10.07
2022-10-28T03:35:10.818Z,10.20
2022-10-28T03:37:38.812Z,9.20
2022-10-28T03:40:09.656Z,10.33
2022-10-28T03:42:40.420Z,10.37
2022-10-28T03:45:09.977Z,8.37
2022-10-28T03:47:38.104Z,9.93
2022-10-28T03:50:06.544Z,9.30
2022-10-28T03:52:34.493Z,10.27
2022-10-28T03:55:02.508Z,10.10
2022-10-28T03:57:33.441Z,7.10
2022-10-28T04:00:01.417Z,7.40
2022-10-28T04:02:39.658Z,8.80
2022-10-28T04:05:08.484Z,11.33
2022-10-28T04:07:36.511Z,10.60
2022-10-28T04:10:04.767Z,7.40
2022-10-28T04:12:34.068Z,7.57
2022-10-28T04:15:02.145Z,9.13
2022-10-28T04:17:30.097Z,9.50
2022-10-28T04:19:58.003Z,7.17
2022-10-28T04:22:25.985Z,8.40
2022-10-28T04:24:54.535Z,6.80
2022-10-28T04:27:22.587Z,8.83
2022-10-28T04:29:51.857Z,7.27
2022-10-28T04:32:19.748Z,7.60
2022-10-28T04:34:47.810Z,8.63
2022-10-28T04:37:19.671Z,9.20
2022-10-28T04:39:48.716Z,7.80
2022-10-28T04:42:16.718Z,9.17
2022-10-28T04:44:44.697Z,7.73
2022-10-28T04:47:13.940Z,7.87
2022-10-28T04:49:41.967Z,8.37
2022-10-28T04:52:13.328Z,8.40
2022-10-28T04:54:43.747Z,8.20
2022-10-28T04:57:11.838Z,9.30
2022-10-28T04:59:39.766Z,7.80
2022-10-28T05:02:07.869Z,9.70
2022-10-28T05:04:37.371Z,10.93
2022-10-28T05:07:05.277Z,11.27
2022-10-28T05:09:33.243Z,14.53
2022-10-28T05:12:01.188Z,12.30
2022-10-28T05:14:29.079Z,11.43
2022-10-28T05:16:56.995Z,12.80
2022-10-28T05:19:24.907Z,11.77
2022-10-28T05:21:54.293Z,9.53
2022-10-28T05:24:22.199Z,10.10
2022-10-28T05:26:50.105Z,11.80
2022-10-28T05:29:19.517Z,13.60
2022-10-28T05:31:47.702Z,9.10
2022-10-28T05:34:15.620Z,10.37
2022-10-28T05:36:43.586Z,12.87
2022-10-28T05:39:13.799Z,10.03
2022-10-28T05:41:41.841Z,9.10
2022-10-28T05:44:09.758Z,8.33
2022-10-28T05:46:37.630Z,9.00
2022-10-28T05:49:05.683Z,9.50
2022-10-28T05:51:33.588Z,8.43
2022-10-28T05:54:01.505Z,15.73
2022-10-28T05:56:30.905Z,12.20
2022-10-28T05:58:59.053Z,14.63
2022-10-28T06:01:26.980Z,20.33
2022-10-28T06:03:55.082Z,12.70
2022-10-28T06:06:23.046Z,15.13
2022-10-28T06:08:50.985Z,13.50
2022-10-28T06:11:17.762Z,14.13
2022-10-28T06:13:46.981Z,12.80
2022-10-28T06:16:14.947Z,12.20
2022-10-28T06:18:42.880Z,14.13
2022-10-28T06:21:10.762Z,14.07
2022-10-28T06:23:38.708Z,15.23
2022-10-28T06:26:06.636Z,21.13
2022-10-28T06:28:34.755Z,15.67
2022-10-28T06:31:05.065Z,13.83
2022-10-28T06:33:33.116Z,11.00
2022-10-28T06:36:01.601Z,13.03
2022-10-28T06:38:30.036Z,10.17
2022-10-28T06:40:58.760Z,11.33
2022-10-28T06:43:27.018Z,9.50
2022-10-28T06:45:55.732Z,8.63
2022-10-28T06:48:26.525Z,11.70
2022-10-28T06:50:56.290Z,8.30
2022-10-28T06:53:24.236Z,12.13
2022-10-28T06:55:56.209Z,8.70
2022-10-28T06:58:24.992Z,10.97
2022-10-28T07:00:53.727Z,10.13
2022-10-28T07:03:21.662Z,13.33
2022-10-28T07:05:51.719Z,12.20
2022-10-28T07:08:19.684Z,9.97
2022-10-28T07:10:55.189Z,22.60
2022-10-28T07:13:23.394Z,12.80
2022-10-28T07:15:55.843Z,9.13
2022-10-28T07:18:25.554Z,13.23
2022-10-28T07:20:54.892Z,27.70
2022-10-28T07:23:22.821Z,36.37
2022-10-28T07:25:54.866Z,33.90
2022-10-28T07:28:23.054Z,30.10
2022-10-28T07:30:51.010Z,22.90
2022-10-28T07:33:19.238Z,30.10
2022-10-28T07:35:47.282Z,15.20
2022-10-28T07:38:17.154Z,12.57
2022-10-28T07:40:45.194Z,14.33
2022-10-28T07:43:13.107Z,21.60
2022-10-28T07:45:41.004Z,15.90
2022-10-28T07:48:08.912Z,16.73
2022-10-28T07:50:36.824Z,15.03
2022-10-28T07:53:04.925Z,13.93
2022-10-28T07:55:34.230Z,18.87
2022-10-28T07:58:02.128Z,18.73
2022-10-28T08:00:30.134Z,12.30
2022-10-28T08:02:58.137Z,12.07
2022-10-28T08:05:26.019Z,15.33
2022-10-28T08:07:54.094Z,14.07
2022-10-28T08:10:22.171Z,14.67
2022-10-28T08:12:51.617Z,12.93
2022-10-28T08:15:23.463Z,15.63
2022-10-28T08:17:53.465Z,13.10
2022-10-28T08:20:22.073Z,14.20
2022-10-28T08:22:50.423Z,16.43
2022-10-28T08:25:18.364Z,15.33
2022-10-28T08:27:46.314Z,11.50
2022-10-28T08:30:15.727Z,14.80
2022-10-28T08:32:43.599Z,15.33
2022-10-28T08:35:11.487Z,13.80
2022-10-28T08:37:39.387Z,15.53
2022-10-28T08:40:11.028Z,17.10
2022-10-28T08:42:45.418Z,17.70
2022-10-28T08:45:31.735Z,18.40
2022-10-28T08:48:13.793Z,16.60
2022-10-28T08:50:53.232Z,15.63
2022-10-28T08:53:25.683Z,21.90
2022-10-28T08:55:56.767Z,14.47
2022-10-28T08:58:28.890Z,17.27
2022-10-28T09:01:00.040Z,15.93
2022-10-28T09:03:34.307Z,14.07
2022-10-28T09:06:06.657Z,18.43
2022-10-28T09:08:37.690Z,17.83
2022-10-28T09:11:17.439Z,23.63
2022-10-28T09:13:55.716Z,15.30
2022-10-28T09:16:36.071Z,14.00
2022-10-28T09:19:10.034Z,16.33
2022-10-28T09:21:46.522Z,20.27
2022-10-28T09:24:19.888Z,19.00
2022-10-28T09:26:56.413Z,19.93
2022-10-28T09:29:41.795Z,22.73
2022-10-28T09:32:23.485Z,17.90
2022-10-28T09:34:57.572Z,17.20
2022-10-28T09:37:30.308Z,18.77
2022-10-28T09:40:03.695Z,14.53
2022-10-28T09:42:41.604Z,17.97
2022-10-28T09:45:18.884Z,16.17
2022-10-28T09:47:59.370Z,16.83
2022-10-28T09:50:31.000Z,16.87
2022-10-28T09:53:05.368Z,16.20
2022-10-28T09:55:33.736Z,14.30
2022-10-28T09:58:03.505Z,15.90
2022-10-28T10:00:32.212Z,14.40
2022-10-28T10:03:01.639Z,16.70
2022-10-28T10:05:32.073Z,16.80
2022-10-28T10:08:04.286Z,17.30
2022-10-28T10:10:37.138Z,16.50
2022-10-28T10:13:07.918Z,15.30
2022-10-28T10:15:40.605Z,16.33
2022-10-28T10:18:17.498Z,14.37
2022-10-28T10:20:51.912Z,14.70
2022-10-28T10:23:25.021Z,14.83
2022-10-28T10:25:58.800Z,14.60
2022-10-28T10:28:28.120Z,14.20
2022-10-28T10:30:58.673Z,19.70
2022-10-28T10:33:32.232Z,17.73
2022-10-28T10:36:03.418Z,14.70
2022-10-28T10:38:32.453Z,15.10
2022-10-28T10:41:00.372Z,18.10
2022-10-28T10:43:32.850Z,12.80
2022-10-28T10:46:03.034Z,18.73
2022-10-28T10:48:36.211Z,12.73
2022-10-28T10:51:09.411Z,17.73
2022-10-28T10:53:39.021Z,16.07
2022-10-28T10:56:10.646Z,13.60
2022-10-28T10:58:41.357Z,14.20
2022-10-28T11:01:17.719Z,17.07
2022-10-28T11:03:51.425Z,15.00
2022-10-28T11:06:24.995Z,16.20
2022-10-28T11:08:59.495Z,17.10
2022-10-28T11:11:34.364Z,15.37
2022-10-28T11:14:08.504Z,15.07
2022-10-28T11:16:49.223Z,15.40
2022-10-28T11:19:22.815Z,13.67
2022-10-28T11:22:04.145Z,14.93
2022-10-28T11:24:55.448Z,17.73
2022-10-28T11:27:38.087Z,15.37
2022-10-28T11:30:11.778Z,14.17
2022-10-28T11:33:08.482Z,12.13
2022-10-28T11:35:57.879Z,15.93
2022-10-28T11:38:41.960Z,19.27
2022-10-28T11:41:21.998Z,16.73
2022-10-28T11:43:55.103Z,15.73
2022-10-28T11:46:38.099Z,12.40
2022-10-28T11:49:31.897Z,14.20
2022-10-28T11:52:08.490Z,13.80
2022-10-28T11:54:46.374Z,16.43
2022-10-28T11:57:17.119Z,16.80
2022-10-28T12:00:09.991Z,15.70
2022-10-28T12:02:59.612Z,15.53
2022-10-28T12:05:34.228Z,12.30
2022-10-28T12:08:16.905Z,14.60
2022-10-28T12:11:01.184Z,13.90
2022-10-28T12:13:38.728Z,11.63
2022-10-28T12:16:13.828Z,10.23
2022-10-28T12:18:51.698Z,18.10
2022-10-28T12:21:28.632Z,12.57
2022-10-28T12:24:00.014Z,12.80
2022-10-28T12:26:36.404Z,12.00
2022-10-28T12:29:10.248Z,12.47
2022-10-28T12:31:44.645Z,13.63
2022-10-28T12:34:17.026Z,10.13
2022-10-28T12:36:50.136Z,13.77
2022-10-28T12:39:25.775Z,17.40
2022-10-28T12:41:59.750Z,11.63
2022-10-28T12:44:29.438Z,11.27
2022-10-28T12:47:06.130Z,8.97
2022-10-28T12:49:45.872Z,11.27
2022-10-28T12:52:25.216Z,8.37
2022-10-28T12:55:01.129Z,14.93
2022-10-28T12:57:34.120Z,10.33
2022-10-28T13:00:05.473Z,11.47
2022-10-28T13:02:38.904Z,7.67
2022-10-28T13:05:07.708Z,14.03
2022-10-28T13:07:57.812Z,14.20
2022-10-28T13:10:35.612Z,19.70
2022-10-28T13:13:21.613Z,11.43
2022-10-28T13:16:05.914Z,9.03
2022-10-28T13:19:16.091Z,10.00
2022-10-28T13:22:14.727Z,16.93
2022-10-28T13:24:54.652Z,9.90
2022-10-28T13:27:24.393Z,9.60
2022-10-28T13:29:56.023Z,10.50
2022-10-28T13:32:35.770Z,12.93
2022-10-28T13:35:14.250Z,11.93
2022-10-28T13:37:46.326Z,11.63
2022-10-28T13:40:24.269Z,11.30
2022-10-28T13:42:53.761Z,9.93
2022-10-28T13:45:48.861Z,10.27
2022-10-28T13:48:55.353Z,8.73
2022-10-28T13:51:33.773Z,11.33
2022-10-28T13:54:02.148Z,12.43
2022-10-28T13:56:47.185Z,11.10
2022-10-28T13:59:25.263Z,12.53
2022-10-28T14:02:07.400Z,10.03
2022-10-28T14:04:54.602Z,16.93
2022-10-28T14:07:26.638Z,10.23
2022-10-28T14:09:58.416Z,9.60
2022-10-28T14:12:32.405Z,10.87
2022-10-28T14:15:17.915Z,12.57
2022-10-28T14:17:50.258Z,16.07
2022-10-28T14:20:28.239Z,13.67
2022-10-28T14:22:56.732Z,13.80
2022-10-28T14:26:04.370Z,15.43
2022-10-28T14:28:55.594Z,15.00
2022-10-28T14:31:45.090Z,9.87
2022-10-28T14:34:41.084Z,8.03
2022-10-28T14:37:42.718Z,11.23
2022-10-28T14:40:24.051Z,10.20
2022-10-28T14:43:09.837Z,10.80
2022-10-28T14:45:48.943Z,24.63
2022-10-28T14:48:46.737Z,23.67
2022-10-28T14:51:17.522Z,23.03
2022-10-28T14:53:46.651Z,13.40
2022-10-28T14:56:24.800Z,11.70
2022-10-28T14:58:55.496Z,16.70
2022-10-28T15:01:27.260Z,16.30
2022-10-28T15:04:01.878Z,15.70
2022-10-28T15:06:34.076Z,14.87
2022-10-28T15:09:09.454Z,11.83
2022-10-28T15:11:37.562Z,12.13
2022-10-28T15:14:24.155Z,17.77
2022-10-28T15:16:52.854Z,8.97
2022-10-28T15:19:24.223Z,16.13
2022-10-28T15:22:07.024Z,8.77
2022-10-28T15:24:35.188Z,9.50
2022-10-28T15:27:03.225Z,18.23
2022-10-28T15:29:31.280Z,9.40
2022-10-28T15:32:06.899Z,11.63
2022-10-28T15:34:36.368Z,8.93
2022-10-28T15:37:05.358Z,11.50
2022-10-28T15:39:33.582Z,14.73
2022-10-28T15:42:02.604Z,8.63
2022-10-28T15:44:36.684Z,9.77
2022-10-28T15:47:19.510Z,11.73
2022-10-28T15:50:17.061Z,11.93
2022-10-28T15:52:48.258Z,9.63
2022-10-28T15:55:35.848Z,16.03
2022-10-28T15:58:34.043Z,11.37
2022-10-28T16:01:02.084Z,19.30
2022-10-28T16:03:43.034Z,21.03
2022-10-28T16:06:24.594Z,14.20
2022-10-28T16:09:17.954Z,22.77
2022-10-28T16:11:48.957Z,20.53
2022-10-28T16:14:34.952Z,17.27
2022-10-28T16:17:08.292Z,23.80
2022-10-28T16:19:39.317Z,19.10
2022-10-28T16:22:12.841Z,16.67
2022-10-28T16:24:40.825Z,19.43
2022-10-28T16:27:18.671Z,18.27
2022-10-28T16:29:46.750Z,21.60
2022-10-28T16:32:16.242Z,21.63
2022-10-28T16:34:44.890Z,17.97
2022-10-28T16:37:25.833Z,15.60
2022-10-28T16:39:54.216Z,15.83
2022-10-28T16:42:23.403Z,14.50
2022-10-28T16:44:52.626Z,14.57
2022-10-28T16:47:22.360Z,30.10
2022-10-28T16:49:54.219Z,18.90
2022-10-28T16:52:28.536Z,21.33
2022-10-28T16:54:56.938Z,21.00
2022-10-28T16:57:25.675Z,25.20
2022-10-28T16:59:53.949Z,18.60
2022-10-28T17:02:26.778Z,22.33
2022-10-28T17:04:55.027Z,27.80
2022-10-28T17:07:23.027Z,20.30
2022-10-28T17:09:52.909Z,21.90
2022-10-28T17:12:22.789Z,20.33
2022-10-28T17:14:50.737Z,18.40
2022-10-28T17:17:19.293Z,15.67
2022-10-28T17:19:47.221Z,18.50
2022-10-28T17:22:15.154Z,16.73
2022-10-28T17:24:43.132Z,21.57
2022-10-28T17:27:12.806Z,19.33
2022-10-28T17:29:40.839Z,19.50
2022-10-28T17:32:09.370Z,15.30
2022-10-28T17:34:37.483Z,16.40
2022-10-28T17:37:05.929Z,22.37
2022-10-28T17:39:33.893Z,23.87
2022-10-28T17:42:01.770Z,22.60
2022-10-28T17:44:31.071Z,43.10
2022-10-28T17:46:58.974Z,53.80
2022-10-28T17:49:26.997Z,30.50
2022-10-28T17:51:55.014Z,43.33
2022-10-28T17:56:51.849Z,65.03
2022-10-28T17:59:19.795Z,67.90
2022-10-28T18:01:49.190Z,41.83
2022-10-28T18:04:17.180Z,40.17
2022-10-28T18:06:45.123Z,55.47
2022-10-28T18:09:13.777Z,32.27
2022-10-28T18:11:41.694Z,42.73
2022-10-28T18:14:09.601Z,38.00
2022-10-28T18:16:38.286Z,35.63
2022-10-28T18:19:08.498Z,32.90
2022-10-28T18:21:36.642Z,34.17
2022-10-28T18:24:04.943Z,30.70
2022-10-28T18:26:34.440Z,25.43
2022-10-28T18:29:03.842Z,24.03
2022-10-28T18:31:32.952Z,32.33
2022-10-28T18:34:01.553Z,18.53
2022-10-28T18:36:34.496Z,19.13
2022-10-28T18:39:04.573Z,17.83
2022-10-28T18:41:34.443Z,27.33
2022-10-28T18:44:04.340Z,25.30
2022-10-28T18:46:33.866Z,22.03
2022-10-28T18:49:02.432Z,16.50
2022-10-28T18:51:32.443Z,20.40
2022-10-28T18:54:00.632Z,18.07
2022-10-28T18:56:30.126Z,20.20
2022-10-28T18:58:59.151Z,21.57
2022-10-28T19:01:29.068Z,19.50
2022-10-28T19:03:59.017Z,17.30
2022-10-28T19:06:29.816Z,21.20
2022-10-28T19:09:00.922Z,23.77
2022-10-28T19:11:31.242Z,20.43
2022-10-28T19:14:00.416Z,20.17
2022-10-28T19:16:29.607Z,18.63
2022-10-28T19:18:58.369Z,20.50
2022-10-28T19:21:27.165Z,24.40
2022-10-28T19:23:55.700Z,30.77
2022-10-28T19:26:25.076Z,21.90
2022-10-28T19:28:53.243Z,19.07
2022-10-28T19:31:23.186Z,17.23
2022-10-28T19:33:52.522Z,19.30
2022-10-28T19:36:22.328Z,17.70
2022-10-28T19:38:53.515Z,21.10
2022-10-28T19:41:24.877Z,16.70
2022-10-28T19:43:57.870Z,14.40
2022-10-28T19:46:27.795Z,16.43
2022-10-28T19:48:57.160Z,18.23
2022-10-28T19:51:27.287Z,13.30
2022-10-28T19:53:56.746Z,19.23
2022-10-28T19:56:26.931Z,24.93
2022-10-28T19:58:57.066Z,21.00
2022-10-28T20:01:27.109Z,17.93
2022-10-28T20:03:56.154Z,19.17
2022-10-28T20:06:26.613Z,22.47
2022-10-28T20:08:54.857Z,17.53
2022-10-28T20:11:27.451Z,21.20
2022-10-28T20:13:56.461Z,19.47
2022-10-28T20:16:26.223Z,22.03
2022-10-28T20:18:55.252Z,22.43
2022-10-28T20:21:24.994Z,23.00
2022-10-28T20:23:54.707Z,20.63
2022-10-28T20:26:24.523Z,24.60
2022-10-28T20:28:53.984Z,22.10
2022-10-28T20:31:23.582Z,24.17
2022-10-28T20:33:53.363Z,26.27
2022-10-28T20:36:26.183Z,24.37
2022-10-28T20:38:55.351Z,16.03
2022-10-28T20:41:23.956Z,16.23
2022-10-28T20:43:54.013Z,21.37
2022-10-28T20:46:22.993Z,31.70
2022-10-28T20:48:51.156Z,28.23
2022-10-28T20:51:19.259Z,29.70
2022-10-28T20:53:47.339Z,31.67
2022-10-28T20:56:17.987Z,24.30
2022-10-28T20:58:45.899Z,25.10
2022-10-28T21:01:17.084Z,22.13
2022-10-28T21:03:45.696Z,21.17
2022-10-28T21:06:15.224Z,21.10
2022-10-28T21:08:44.167Z,17.83
2022-10-28T21:11:13.503Z,22.53
2022-10-28T21:13:41.519Z,18.57
2022-10-28T21:16:11.492Z,18.00
2022-10-28T21:18:41.257Z,21.20
2022-10-28T21:21:09.216Z,26.93
2022-10-28T21:23:37.129Z,22.77
2022-10-28T21:26:07.870Z,20.73
2022-10-28T21:28:36.800Z,22.20
2022-10-28T21:31:06.518Z,24.63
2022-10-28T21:33:35.719Z,24.93
2022-10-28T21:36:07.513Z,26.27
2022-10-28T21:38:36.230Z,22.70
2022-10-28T21:41:06.251Z,33.70
2022-10-28T21:43:36.317Z,26.80
2022-10-28T21:46:04.658Z,31.10
2022-10-28T21:48:33.930Z,33.23
2022-10-28T21:51:04.831Z,24.20
2022-10-28T21:53:37.105Z,27.17
2022-10-28T21:56:06.389Z,19.43
2022-10-28T21:58:36.725Z,21.23
2022-10-28T22:01:06.402Z,17.20
2022-10-28T22:03:34.692Z,26.47
2022-10-28T22:06:02.612Z,15.80
2022-10-28T22:08:30.686Z,17.63
2022-10-28T22:11:05.699Z,17.20
2022-10-28T22:13:34.238Z,22.70
2022-10-28T22:16:03.827Z,15.43
2022-10-28T22:18:33.770Z,17.40
2022-10-28T22:21:05.459Z,21.40
2022-10-28T22:23:33.644Z,17.73
2022-10-28T22:26:03.980Z,18.03
2022-10-28T22:28:32.476Z,14.57
2022-10-28T22:31:00.521Z,16.00
2022-10-28T22:33:28.584Z,20.27
2022-10-28T22:36:00.044Z,19.07
2022-10-28T22:38:28.299Z,23.00
2022-10-28T22:41:08.270Z,29.20
2022-10-28T22:43:36.203Z,18.83
2022-10-28T22:46:04.967Z,18.77
2022-10-28T22:48:33.615Z,15.40
2022-10-28T22:51:02.034Z,16.70
2022-10-28T22:53:30.337Z,16.50
2022-10-28T22:55:58.894Z,18.23
2022-10-28T22:58:28.765Z,16.23
2022-10-28T23:01:06.012Z,19.13
2022-10-28T23:03:36.977Z,20.80
2022-10-28T23:06:05.322Z,14.97
2022-10-28T23:08:33.233Z,31.13
2022-10-28T23:11:01.409Z,15.70
2022-10-28T23:13:30.812Z,13.83
2022-10-28T23:16:03.044Z,11.37
2022-10-28T23:18:30.921Z,18.27
2022-10-28T23:21:03.979Z,16.07
2022-10-28T23:23:31.938Z,15.43
2022-10-28T23:25:59.893Z,18.10
2022-10-28T23:28:27.928Z,18.83
2022-10-28T23:31:00.487Z,21.53
2022-10-28T23:33:29.870Z,21.73
2022-10-28T23:35:58.349Z,19.00
2022-10-28T23:38:26.946Z,18.27
2022-10-28T23:40:56.299Z,15.63
2022-10-28T23:43:24.275Z,26.43
2022-10-28T23:45:52.356Z,25.93
2022-10-28T23:48:22.536Z,22.37
2022-10-28T23:50:50.583Z,28.27
2022-10-28T23:53:18.956Z,33.93
2022-10-28T23:55:48.791Z,24.10
2022-10-28T23:58:18.447Z,23.17
